createdAt,value
2022-11-12T00:02:25.738Z,24.72
2022-11-12T00:07:32.776Z,24.79
2022-11-12T00:12:39.999Z,24.89
2022-11-12T00:17:47.413Z,24.89
2022-11-12T00:22:54.481Z,24.92
2022-11-12T00:28:01.643Z,24.99
2022-11-12T00:33:08.959Z,25.06
2022-11-12T00:38:16.016Z,25.17
2022-11-12T00:43:23.493Z,25.19
2022-11-12T00:48:30.875Z,25.10
2022-11-12T00:53:37.992Z,25.08
2022-11-12T00:58:45.224Z,25.07
2022-11-12T01:03:52.642Z,25.00
2022-11-12T01:08:59.683Z,24.90
2022-11-12T01:14:06.881Z,24.81
2022-11-12T01:19:14.179Z,24.64
2022-11-12T01:24:21.208Z,24.56
2022-11-12T01:29:28.441Z,24.45
2022-11-12T01:34:35.810Z,24.38
2022-11-12T01:39:42.887Z,24.30
2022-11-12T01:44:50.117Z,24.23
2022-11-12T01:49:59.253Z,24.18
2022-11-12T01:55:06.341Z,24.07
2022-11-12T02:00:13.654Z,23.93
2022-11-12T02:05:21.008Z,23.89
2022-11-12T02:10:28.209Z,23.80
2022-11-12T02:15:38.331Z,23.70
2022-11-12T02:20:45.708Z,23.63
2022-11-12T02:25:52.763Z,23.55
2022-11-12T02:31:00.016Z,23.46
2022-11-12T02:36:07.285Z,23.37
2022-11-12T02:41:15.416Z,23.30
2022-11-12T02:46:24.215Z,23.23
2022-11-12T02:51:31.569Z,23.17
2022-11-12T02:56:38.672Z,23.08
2022-11-12T03:01:45.877Z,23.02
2022-11-12T03:06:53.231Z,22.96
2022-11-12T03:12:00.501Z,22.88
2022-11-12T03:17:07.789Z,22.83
2022-11-12T03:22:15.131Z,22.79
2022-11-12T03:27:22.228Z,22.76
2022-11-12T03:32:29.423Z,22.74
2022-11-12T03:37:36.811Z,22.71
2022-11-12T03:42:43.937Z,22.70
2022-11-12T03:47:51.253Z,22.67
2022-11-12T03:52:58.672Z,22.66
2022-11-12T03:58:05.747Z,22.65
2022-11-12T04:03:13.793Z,22.63
2022-11-12T04:08:21.207Z,22.60
2022-11-12T04:13:28.295Z,22.57
2022-11-12T04:18:35.619Z,22.56
2022-11-12T04:23:42.952Z,22.52
2022-11-12T04:28:50.150Z,22.50
2022-11-12T04:33:57.362Z,22.45
2022-11-12T04:39:04.688Z,22.42
2022-11-12T04:44:11.800Z,22.36
2022-11-12T04:49:19.029Z,22.34
2022-11-12T04:54:29.422Z,22.29
2022-11-12T04:59:36.524Z,22.27
2022-11-12T05:04:43.741Z,22.24
2022-11-12T05:09:51.128Z,22.22
2022-11-12T05:14:58.298Z,22.22
2022-11-12T05:20:05.561Z,22.21
2022-11-12T05:25:12.976Z,22.22
2022-11-12T05:30:20.081Z,22.21
2022-11-12T05:35:27.359Z,22.23
2022-11-12T05:40:34.777Z,22.23
2022-11-12T05:45:43.926Z,22.22
2022-11-12T05:51:11.796Z,22.23
2022-11-12T05:55:58.448Z,22.21
2022-11-12T06:01:05.504Z,22.19
2022-11-12T06:06:12.720Z,22.16
2022-11-12T06:11:20.025Z,22.15
2022-11-12T06:16:27.123Z,22.12
2022-11-12T06:21:34.381Z,22.09
2022-11-12T06:26:41.752Z,22.06
2022-11-12T06:31:48.937Z,22.02
2022-11-12T06:36:56.170Z,21.99
2022-11-12T06:42:03.516Z,21.98
2022-11-12T06:47:10.637Z,21.96
2022-11-12T06:52:17.859Z,21.96
2022-11-12T06:57:25.180Z,21.95
2022-11-12T07:02:32.310Z,21.96
2022-11-12T07:07:39.538Z,21.97
2022-11-12T07:12:53.157Z,21.97
2022-11-12T07:17:55.062Z,21.97
2022-11-12T07:23:02.326Z,21.93
2022-11-12T07:28:10.269Z,21.94
2022-11-12T07:33:17.449Z,21.95
2022-11-12T07:38:25.006Z,21.92
2022-11-12T07:43:32.048Z,21.92
2022-11-12T07:48:39.174Z,21.91
2022-11-12T07:53:46.421Z,21.88
2022-11-12T07:58:53.786Z,21.86
2022-11-12T08:04:00.872Z,21.86
2022-11-12T08:09:08.077Z,21.82
2022-11-12T08:14:15.464Z,21.80
2022-11-12T08:19:22.471Z,21.82
2022-11-12T08:24:29.727Z,21.96
2022-11-12T08:29:38.839Z,22.06
2022-11-12T08:34:45.941Z,22.20
2022-11-12T08:39:53.125Z,22.32
2022-11-12T08:45:02.559Z,22.43
2022-11-12T08:50:11.574Z,22.51
2022-11-12T08:55:18.803Z,22.61
2022-11-12T09:00:26.215Z,22.72
2022-11-12T09:05:33.330Z,22.81
2022-11-12T09:10:40.573Z,22.87
2022-11-12T09:15:47.943Z,22.97
2022-11-12T09:20:55.046Z,23.04
2022-11-12T09:26:02.296Z,23.11
2022-11-12T09:31:09.614Z,23.24
2022-11-12T09:36:16.728Z,23.35
2022-11-12T09:41:23.967Z,23.46
2022-11-12T09:46:31.307Z,23.58
2022-11-12T09:51:38.417Z,23.72
2022-11-12T09:56:45.635Z,23.83
2022-11-12T10:01:53.046Z,23.98
2022-11-12T10:07:00.112Z,24.16
2022-11-12T10:12:09.308Z,24.31
2022-11-12T10:17:18.500Z,24.49
2022-11-12T10:22:25.684Z,24.62
2022-11-12T10:27:32.905Z,24.68
2022-11-12T10:32:40.259Z,24.62
2022-11-12T10:37:47.365Z,24.64
2022-11-12T10:42:54.645Z,24.66
2022-11-12T10:48:01.989Z,24.62
2022-11-12T10:53:12.965Z,24.63
2022-11-12T10:58:20.139Z,24.67
2022-11-12T11:03:27.486Z,24.76
2022-11-12T11:08:36.575Z,24.86
2022-11-12T11:13:41.830Z,24.88
2022-11-12T11:18:52.231Z,24.96
2022-11-12T11:23:59.383Z,25.04
2022-11-12T11:29:06.599Z,25.03
2022-11-12T11:34:13.875Z,25.09
2022-11-12T11:39:20.986Z,25.16
2022-11-12T11:44:28.220Z,25.21
2022-11-12T11:49:41.445Z,25.19
2022-11-12T11:54:49.934Z,25.17
2022-11-12T11:59:57.179Z,25.21
2022-11-12T12:05:05.019Z,25.30
2022-11-12T12:10:12.095Z,25.31
2022-11-12T12:15:19.785Z,25.43
2022-11-12T12:20:28.915Z,25.55
2022-11-12T12:25:36.052Z,25.52
2022-11-12T12:30:43.286Z,25.58
2022-11-12T12:35:50.612Z,25.64
2022-11-12T12:40:57.770Z,25.66
2022-11-12T12:46:05.016Z,25.74
2022-11-12T12:51:12.442Z,25.79
2022-11-12T12:56:19.509Z,25.79
2022-11-12T13:01:26.726Z,25.67
2022-11-12T13:06:34.116Z,25.62
2022-11-12T13:11:42.032Z,25.56
2022-11-12T13:16:49.266Z,25.40
2022-11-12T13:21:56.783Z,25.50
2022-11-12T13:27:03.868Z,25.58
2022-11-12T13:32:11.044Z,25.64
2022-11-12T13:37:18.383Z,25.71
2022-11-12T13:42:25.424Z,25.68
2022-11-12T13:47:32.686Z,25.67
2022-11-12T13:52:40.000Z,25.66
2022-11-12T13:57:47.066Z,25.72
2022-11-12T14:02:54.254Z,25.66
2022-11-12T14:08:01.617Z,25.60
2022-11-12T14:13:08.752Z,25.59
2022-11-12T14:18:16.837Z,25.56
2022-11-12T14:23:25.331Z,25.57
2022-11-12T14:28:31.303Z,25.58
2022-11-12T14:33:38.595Z,25.56
2022-11-12T14:38:45.954Z,25.53
2022-11-12T14:44:11.013Z,25.45
2022-11-12T14:49:01.838Z,25.42
2022-11-12T14:54:13.211Z,25.35
2022-11-12T14:59:20.406Z,25.30
2022-11-12T15:04:27.571Z,25.26
2022-11-12T15:09:35.060Z,25.19
2022-11-12T15:14:42.160Z,25.24
2022-11-12T15:19:52.919Z,25.28
2022-11-12T15:25:02.226Z,25.36
2022-11-12T15:30:09.339Z,25.32
2022-11-12T15:35:16.615Z,25.35
2022-11-12T15:40:24.053Z,25.38
2022-11-12T15:45:31.239Z,25.40
2022-11-12T15:50:38.588Z,25.53
2022-11-12T15:55:45.976Z,25.59
2022-11-12T16:00:53.494Z,25.57
2022-11-12T16:06:05.679Z,25.55
2022-11-12T16:11:08.099Z,25.54
2022-11-12T16:16:15.881Z,25.50
2022-11-12T16:21:24.871Z,25.44
2022-11-12T16:26:32.302Z,25.49
2022-11-12T16:31:40.238Z,25.47
2022-11-12T16:36:47.402Z,25.52
2022-11-12T16:41:54.710Z,25.59
2022-11-12T16:47:08.343Z,25.75
2022-11-12T16:52:15.580Z,25.85
2022-11-12T16:57:22.935Z,25.89
2022-11-12T17:02:30.144Z,26.01
2022-11-12T17:07:37.410Z,25.99
2022-11-12T17:12:44.763Z,25.96
2022-11-12T17:17:51.965Z,25.88
2022-11-12T17:22:59.433Z,25.96
2022-11-12T17:28:07.178Z,25.96
2022-11-12T17:33:14.497Z,25.93
2022-11-12T17:38:21.775Z,25.99
2022-11-12T17:43:29.524Z,25.98
2022-11-12T17:48:36.307Z,26.01
2022-11-12T17:53:44.505Z,26.01
2022-11-12T17:58:52.102Z,26.00
2022-11-12T18:03:59.536Z,26.01
2022-11-12T18:09:08.173Z,25.97
2022-11-12T18:14:15.570Z,25.93
2022-11-12T18:19:22.733Z,25.84
2022-11-12T18:24:30.195Z,25.81
2022-11-12T18:29:37.923Z,25.78
2022-11-12T18:34:45.392Z,25.82
2022-11-12T18:39:53.346Z,25.84
2022-11-12T18:45:00.872Z,25.89
2022-11-12T18:50:09.046Z,25.84
2022-11-12T18:55:15.341Z,25.95
2022-11-12T19:00:22.718Z,26.04
2022-11-12T19:05:30.185Z,26.01
2022-11-12T19:10:37.594Z,25.87
2022-11-12T19:15:44.972Z,25.93
2022-11-12T19:20:52.135Z,25.91
2022-11-12T19:25:59.621Z,25.92
2022-11-12T19:31:07.289Z,25.88
2022-11-12T19:36:14.551Z,25.87
2022-11-12T19:41:21.802Z,25.90
2022-11-12T19:46:29.268Z,25.95
2022-11-12T19:51:36.379Z,26.07
2022-11-12T19:56:43.687Z,26.10
2022-11-12T20:01:51.346Z,26.19
2022-11-12T20:06:58.948Z,26.24
2022-11-12T20:12:06.219Z,26.25
2022-11-12T20:17:13.530Z,26.23
2022-11-12T20:22:20.923Z,26.15
2022-11-12T20:27:28.267Z,26.13
2022-11-12T20:32:35.812Z,26.10
2022-11-12T20:37:47.558Z,26.00
2022-11-12T20:42:54.892Z,26.11
2022-11-12T20:48:02.592Z,26.09
2022-11-12T20:53:09.904Z,26.10
2022-11-12T20:58:17.437Z,26.13
2022-11-12T21:03:24.825Z,26.11
2022-11-12T21:08:32.216Z,26.08
2022-11-12T21:13:39.658Z,26.15
2022-11-12T21:18:47.075Z,26.13
2022-11-12T21:23:56.753Z,26.18
2022-11-12T21:29:02.791Z,26.14
2022-11-12T21:34:10.108Z,26.07
2022-11-12T21:39:17.201Z,26.08
2022-11-12T21:44:24.395Z,26.07
2022-11-12T21:49:32.841Z,26.10
2022-11-12T21:54:39.996Z,26.14
2022-11-12T21:59:47.164Z,26.14
2022-11-12T22:04:54.530Z,26.21
2022-11-12T22:10:01.659Z,26.24
2022-11-12T22:15:08.880Z,26.30
2022-11-12T22:20:16.991Z,26.28
2022-11-12T22:25:24.035Z,26.23
2022-11-12T22:30:31.225Z,26.30
2022-11-12T22:35:38.601Z,26.37
2022-11-12T22:40:45.707Z,26.35
2022-11-12T22:45:52.913Z,26.25
2022-11-12T22:51:00.348Z,26.25
2022-11-12T22:56:07.323Z,26.10
2022-11-12T23:01:14.596Z,26.05
2022-11-12T23:06:21.886Z,25.99
2022-11-12T23:11:29.507Z,26.09
2022-11-12T23:16:37.994Z,26.15
2022-11-12T23:21:45.320Z,26.19
2022-11-12T23:26:52.404Z,26.20
2022-11-12T23:32:00.225Z,26.30
2022-11-12T23:37:07.622Z,26.27
2022-11-12T23:42:14.704Z,26.32
2022-11-12T23:47:21.942Z,26.29
2022-11-12T23:52:29.322Z,26.30
2022-11-12T23:57:36.367Z,26.33
